sensor_id;sensor_type;location;lat;lon;timestamp;P1;durP1;ratioP1;P2;durP2;ratioP2
13002;SDS011;66869;57.706;11.922;2023-05-07T00:00:25;0.20;;;0.17;;
13002;SDS011;66869;57.706;11.922;2023-05-07T00:02:50;0.10;;;0.10;;
13002;SDS011;66869;57.706;11.922;2023-05-07T00:05:16;0.20;;;0.20;;
13002;SDS011;66869;57.706;11.922;2023-05-07T00:07:41;0.20;;;0.20;;
13002;SDS011;66869;57.706;11.922;2023-05-07T00:10:06;0.20;;;0.20;;
13002;SDS011;66869;57.706;11.922;2023-05-07T00:12:32;0.73;;;0.20;;
13002;SDS011;66869;57.706;11.922;2023-05-07T00:15:01;0.55;;;0.20;;
13002;SDS011;66869;57.706;11.922;2023-05-07T00:17:26;0.20;;;0.20;;
13002;SDS011;66869;57.706;11.922;2023-05-07T00:19:52;1.30;;;0.20;;
13002;SDS011;66869;57.706;11.922;2023-05-07T00:22:17;0.17;;;0.17;;
13002;SDS011;66869;57.706;11.922;2023-05-07T00:24:42;0.30;;;0.30;;
13002;SDS011;66869;57.706;11.922;2023-05-07T00:27:08;0.63;;;0.20;;
13002;SDS011;66869;57.706;11.922;2023-05-07T00:29:33;0.40;;;0.22;;
13002;SDS011;66869;57.706;11.922;2023-05-07T00:31:58;0.20;;;0.20;;
13002;SDS011;66869;57.706;11.922;2023-05-07T00:34:24;0.20;;;0.20;;
13002;SDS011;66869;57.706;11.922;2023-05-07T00:36:49;0.20;;;0.20;;
13002;SDS011;66869;57.706;11.922;2023-05-07T00:39:14;0.30;;;0.30;;
13002;SDS011;66869;57.706;11.922;2023-05-07T00:41:40;0.15;;;0.15;;
13002;SDS011;66869;57.706;11.922;2023-05-07T00:44:05;0.22;;;0.20;;
13002;SDS011;66869;57.706;11.922;2023-05-07T00:46:31;0.20;;;0.20;;
13002;SDS011;66869;57.706;11.922;2023-05-07T00:48:57;0.30;;;0.30;;
13002;SDS011;66869;57.706;11.922;2023-05-07T00:51:23;0.43;;;0.20;;
13002;SDS011;66869;57.706;11.922;2023-05-07T00:53:49;0.20;;;0.20;;
13002;SDS011;66869;57.706;11.922;2023-05-07T00:56:14;0.10;;;0.10;;
13002;SDS011;66869;57.706;11.922;2023-05-07T00:58:40;0.20;;;0.20;;
13002;SDS011;66869;57.706;11.922;2023-05-07T01:01:05;0.25;;;0.17;;
13002;SDS011;66869;57.706;11.922;2023-05-07T01:03:31;0.10;;;0.10;;
13002;SDS011;66869;57.706;11.922;2023-05-07T01:05:57;0.25;;;0.25;;
13002;SDS011;66869;57.706;11.922;2023-05-07T01:08:23;0.30;;;0.30;;
13002;SDS011;66869;57.706;11.922;2023-05-07T01:10:49;0.10;;;0.10;;
13002;SDS011;66869;57.706;11.922;2023-05-07T01:13:15;0.20;;;0.17;;
13002;SDS011;66869;57.706;11.922;2023-05-07T01:15:41;0.22;;;0.13;;
13002;SDS011;66869;57.706;11.922;2023-05-07T01:18:06;0.10;;;0.10;;
13002;SDS011;66869;57.706;11.922;2023-05-07T01:20:32;0.20;;;0.20;;
13002;SDS011;66869;57.706;11.922;2023-05-07T01:22:57;0.15;;;0.15;;
13002;SDS011;66869;57.706;11.922;2023-05-07T01:25:22;0.13;;;0.10;;
13002;SDS011;66869;57.706;11.922;2023-05-07T01:27:48;0.20;;;0.20;;
13002;SDS011;66869;57.706;11.922;2023-05-07T01:30:13;0.13;;;0.13;;
13002;SDS011;66869;57.706;11.922;2023-05-07T01:35:05;0.20;;;0.20;;
13002;SDS011;66869;57.706;11.922;2023-05-07T01:37:31;0.13;;;0.13;;
13002;SDS011;66869;57.706;11.922;2023-05-07T01:39:56;0.40;;;0.20;;
13002;SDS011;66869;57.706;11.922;2023-05-07T01:42:22;0.43;;;0.10;;
13002;SDS011;66869;57.706;11.922;2023-05-07T01:44:47;0.30;;;0.30;;
13002;SDS011;66869;57.706;11.922;2023-05-07T01:47:13;0.20;;;0.20;;
13002;SDS011;66869;57.706;11.922;2023-05-07T01:49:39;0.22;;;0.22;;
13002;SDS011;66869;57.706;11.922;2023-05-07T01:52:04;0.10;;;0.10;;
13002;SDS011;66869;57.706;11.922;2023-05-07T01:54:30;0.10;;;0.10;;
13002;SDS011;66869;57.706;11.922;2023-05-07T01:56:56;1.35;;;0.20;;
13002;SDS011;66869;57.706;11.922;2023-05-07T01:59:21;0.10;;;0.10;;
13002;SDS011;66869;57.706;11.922;2023-05-07T02:01:46;0.10;;;0.10;;
13002;SDS011;66869;57.706;11.922;2023-05-07T02:04:12;0.20;;;0.20;;
13002;SDS011;66869;57.706;11.922;2023-05-07T02:06:37;1.17;;;0.20;;
13002;SDS011;66869;57.706;11.922;2023-05-07T02:09:03;0.10;;;0.10;;
13002;SDS011;66869;57.706;11.922;2023-05-07T02:11:28;0.10;;;0.10;;
13002;SDS011;66869;57.706;11.922;2023-05-07T02:13:53;1.27;;;0.10;;
13002;SDS011;66869;57.706;11.922;2023-05-07T02:16:19;0.10;;;0.10;;
13002;SDS011;66869;57.706;11.922;2023-05-07T02:18:45;0.15;;;0.15;;
13002;SDS011;66869;57.706;11.922;2023-05-07T02:21:10;0.10;;;0.10;;
13002;SDS011;66869;57.706;11.922;2023-05-07T02:23:35;0.57;;;0.20;;
13002;SDS011;66869;57.706;11.922;2023-05-07T02:26:00;0.10;;;0.10;;
13002;SDS011;66869;57.706;11.922;2023-05-07T02:28:26;0.32;;;0.13;;
13002;SDS011;66869;57.706;11.922;2023-05-07T02:30:52;0.20;;;0.20;;
13002;SDS011;66869;57.706;11.922;2023-05-07T02:33:17;0.20;;;0.20;;
13002;SDS011;66869;57.706;11.922;2023-05-07T02:35:43;0.10;;;0.10;;
13002;SDS011;66869;57.706;11.922;2023-05-07T02:38:08;0.10;;;0.10;;
13002;SDS011;66869;57.706;11.922;2023-05-07T02:40:35;0.38;;;0.17;;
13002;SDS011;66869;57.706;11.922;2023-05-07T02:43:03;0.45;;;0.10;;
13002;SDS011;66869;57.706;11.922;2023-05-07T02:45:29;0.10;;;0.10;;
13002;SDS011;66869;57.706;11.922;2023-05-07T02:47:54;0.57;;;0.20;;
13002;SDS011;66869;57.706;11.922;2023-05-07T02:50:20;0.13;;;0.10;;
13002;SDS011;66869;57.706;11.922;2023-05-07T02:52:45;0.20;;;0.20;;
13002;SDS011;66869;57.706;11.922;2023-05-07T02:55:10;0.20;;;0.20;;
13002;SDS011;66869;57.706;11.922;2023-05-07T02:57:36;0.20;;;0.20;;
13002;SDS011;66869;57.706;11.922;2023-05-07T03:00:09;0.10;;;0.10;;
13002;SDS011;66869;57.706;11.922;2023-05-07T03:02:35;0.20;;;0.10;;
13002;SDS011;66869;57.706;11.922;2023-05-07T03:05:00;1.05;;;0.20;;
13002;SDS011;66869;57.706;11.922;2023-05-07T03:07:26;0.20;;;0.20;;
13002;SDS011;66869;57.706;11.922;2023-05-07T03:09:51;0.20;;;0.20;;
13002;SDS011;66869;57.706;11.922;2023-05-07T03:12:17;0.10;;;0.10;;
13002;SDS011;66869;57.706;11.922;2023-05-07T03:14:42;0.10;;;0.10;;
13002;SDS011;66869;57.706;11.922;2023-05-07T03:17:07;0.10;;;0.10;;
13002;SDS011;66869;57.706;11.922;2023-05-07T03:19:33;0.10;;;0.10;;
13002;SDS011;66869;57.706;11.922;2023-05-07T03:21:58;0.13;;;0.10;;
13002;SDS011;66869;57.706;11.922;2023-05-07T03:24:23;0.10;;;0.10;;
13002;SDS011;66869;57.706;11.922;2023-05-07T03:26:48;0.10;;;0.10;;
13002;SDS011;66869;57.706;11.922;2023-05-07T03:29:14;0.20;;;0.20;;
13002;SDS011;66869;57.706;11.922;2023-05-07T03:31:39;0.05;;;0.05;;
13002;SDS011;66869;57.706;11.922;2023-05-07T03:34:04;0.20;;;0.20;;
13002;SDS011;66869;57.706;11.922;2023-05-07T03:36:29;1.98;;;0.20;;
13002;SDS011;66869;57.706;11.922;2023-05-07T03:38:55;1.38;;;0.30;;
13002;SDS011;66869;57.706;11.922;2023-05-07T03:41:20;0.20;;;0.20;;
13002;SDS011;66869;57.706;11.922;2023-05-07T03:43:46;0.10;;;0.10;;
13002;SDS011;66869;57.706;11.922;2023-05-07T03:46:11;1.20;;;0.22;;
13002;SDS011;66869;57.706;11.922;2023-05-07T03:48:36;1.27;;;0.20;;
13002;SDS011;66869;57.706;11.922;2023-05-07T03:51:02;0.38;;;0.25;;
13002;SDS011;66869;57.706;11.922;2023-05-07T03:53:27;0.40;;;0.20;;
13002;SDS011;66869;57.706;11.922;2023-05-07T03:55:52;0.60;;;0.30;;
13002;SDS011;66869;57.706;11.922;2023-05-07T03:58:18;0.45;;;0.32;;
13002;SDS011;66869;57.706;11.922;2023-05-07T04:00:44;0.40;;;0.30;;
13002;SDS011;66869;57.706;11.922;2023-05-07T04:03:09;0.20;;;0.20;;
13002;SDS011;66869;57.706;11.922;2023-05-07T04:05:34;0.10;;;0.10;;
13002;SDS011;66869;57.706;11.922;2023-05-07T04:08:00;0.20;;;0.20;;
13002;SDS011;66869;57.706;11.922;2023-05-07T04:10:25;0.30;;;0.20;;
13002;SDS011;66869;57.706;11.922;2023-05-07T04:12:50;0.22;;;0.10;;
13002;SDS011;66869;57.706;11.922;2023-05-07T04:15:16;0.30;;;0.30;;
13002;SDS011;66869;57.706;11.922;2023-05-07T04:17:41;0.17;;;0.15;;
13002;SDS011;66869;57.706;11.922;2023-05-07T04:20:08;2.25;;;0.20;;
13002;SDS011;66869;57.706;11.922;2023-05-07T04:22:33;0.10;;;0.10;;
13002;SDS011;66869;57.706;11.922;2023-05-07T04:24:59;0.20;;;0.20;;
13002;SDS011;66869;57.706;11.922;2023-05-07T04:27:25;0.32;;;0.10;;
13002;SDS011;66869;57.706;11.922;2023-05-07T04:29:51;0.13;;;0.13;;
13002;SDS011;66869;57.706;11.922;2023-05-07T04:32:16;0.05;;;0.05;;
13002;SDS011;66869;57.706;11.922;2023-05-07T04:34:42;0.10;;;0.10;;
13002;SDS011;66869;57.706;11.922;2023-05-07T04:37:08;0.45;;;0.00;;
13002;SDS011;66869;57.706;11.922;2023-05-07T04:39:33;0.20;;;0.20;;
13002;SDS011;66869;57.706;11.922;2023-05-07T04:42:00;0.08;;;0.08;;
13002;SDS011;66869;57.706;11.922;2023-05-07T04:44:25;0.05;;;0.05;;
13002;SDS011;66869;57.706;11.922;2023-05-07T04:46:51;0.10;;;0.10;;
13002;SDS011;66869;57.706;11.922;2023-05-07T04:49:16;1.60;;;0.20;;
13002;SDS011;66869;57.706;11.922;2023-05-07T04:51:41;0.20;;;0.10;;
13002;SDS011;66869;57.706;11.922;2023-05-07T04:54:07;0.13;;;0.13;;
13002;SDS011;66869;57.706;11.922;2023-05-07T04:56:33;1.15;;;0.40;;
13002;SDS011;66869;57.706;11.922;2023-05-07T04:58:58;0.30;;;0.30;;
13002;SDS011;66869;57.706;11.922;2023-05-07T05:01:23;1.58;;;0.47;;
13002;SDS011;66869;57.706;11.922;2023-05-07T05:03:49;0.60;;;0.30;;
13002;SDS011;66869;57.706;11.922;2023-05-07T05:06:14;0.28;;;0.20;;
13002;SDS011;66869;57.706;11.922;2023-05-07T05:08:39;1.48;;;0.30;;
13002;SDS011;66869;57.706;11.922;2023-05-07T05:11:05;0.10;;;0.10;;
13002;SDS011;66869;57.706;11.922;2023-05-07T05:13:30;0.20;;;0.20;;
13002;SDS011;66869;57.706;11.922;2023-05-07T05:15:55;0.20;;;0.20;;
13002;SDS011;66869;57.706;11.922;2023-05-07T05:18:21;0.57;;;0.17;;
13002;SDS011;66869;57.706;11.922;2023-05-07T05:20:46;0.22;;;0.15;;
13002;SDS011;66869;57.706;11.922;2023-05-07T05:23:11;0.65;;;0.43;;
13002;SDS011;66869;57.706;11.922;2023-05-07T05:25:37;0.93;;;0.40;;
13002;SDS011;66869;57.706;11.922;2023-05-07T05:28:04;0.65;;;0.40;;
13002;SDS011;66869;57.706;11.922;2023-05-07T05:30:29;0.60;;;0.52;;
13002;SDS011;66869;57.706;11.922;2023-05-07T05:32:54;4.60;;;1.10;;
13002;SDS011;66869;57.706;11.922;2023-05-07T05:35:20;2.17;;;1.02;;
13002;SDS011;66869;57.706;11.922;2023-05-07T05:37:45;1.85;;;0.85;;
13002;SDS011;66869;57.706;11.922;2023-05-07T05:40:10;3.40;;;0.60;;
13002;SDS011;66869;57.706;11.922;2023-05-07T05:42:36;1.52;;;0.50;;
13002;SDS011;66869;57.706;11.922;2023-05-07T05:45:01;1.05;;;0.57;;
13002;SDS011;66869;57.706;11.922;2023-05-07T05:47:26;2.50;;;0.68;;
13002;SDS011;66869;57.706;11.922;2023-05-07T05:49:52;0.68;;;0.57;;
13002;SDS011;66869;57.706;11.922;2023-05-07T05:52:17;1.73;;;0.60;;
13002;SDS011;66869;57.706;11.922;2023-05-07T05:54:42;1.65;;;0.77;;
13002;SDS011;66869;57.706;11.922;2023-05-07T05:57:07;0.60;;;0.50;;
13002;SDS011;66869;57.706;11.922;2023-05-07T05:59:33;4.63;;;0.90;;
13002;SDS011;66869;57.706;11.922;2023-05-07T06:01:58;2.13;;;0.77;;
13002;SDS011;66869;57.706;11.922;2023-05-07T06:04:23;3.08;;;0.70;;
13002;SDS011;66869;57.706;11.922;2023-05-07T06:06:49;1.60;;;0.60;;
13002;SDS011;66869;57.706;11.922;2023-05-07T06:09:14;2.08;;;0.60;;
13002;SDS011;66869;57.706;11.922;2023-05-07T06:11:39;1.65;;;0.50;;
13002;SDS011;66869;57.706;11.922;2023-05-07T06:14:06;2.13;;;0.40;;
13002;SDS011;66869;57.706;11.922;2023-05-07T06:16:31;1.00;;;0.63;;
13002;SDS011;66869;57.706;11.922;2023-05-07T06:18:56;0.30;;;0.30;;
13002;SDS011;66869;57.706;11.922;2023-05-07T06:21:21;0.65;;;0.50;;
13002;SDS011;66869;57.706;11.922;2023-05-07T06:23:47;0.45;;;0.43;;
13002;SDS011;66869;57.706;11.922;2023-05-07T06:26:12;1.73;;;0.50;;
13002;SDS011;66869;57.706;11.922;2023-05-07T06:28:37;2.38;;;0.43;;
13002;SDS011;66869;57.706;11.922;2023-05-07T06:31:15;1.50;;;0.40;;
13002;SDS011;66869;57.706;11.922;2023-05-07T06:33:41;0.20;;;0.20;;
13002;SDS011;66869;57.706;11.922;2023-05-07T06:36:07;0.65;;;0.20;;
13002;SDS011;66869;57.706;11.922;2023-05-07T06:38:32;0.40;;;0.30;;
13002;SDS011;66869;57.706;11.922;2023-05-07T06:40:58;0.20;;;0.20;;
13002;SDS011;66869;57.706;11.922;2023-05-07T06:43:23;0.20;;;0.20;;
13002;SDS011;66869;57.706;11.922;2023-05-07T06:45:48;0.25;;;0.20;;
13002;SDS011;66869;57.706;11.922;2023-05-07T06:48:13;0.17;;;0.17;;
13002;SDS011;66869;57.706;11.922;2023-05-07T06:50:39;0.22;;;0.20;;
13002;SDS011;66869;57.706;11.922;2023-05-07T06:53:04;0.82;;;0.20;;
13002;SDS011;66869;57.706;11.922;2023-05-07T06:55:29;0.32;;;0.22;;
13002;SDS011;66869;57.706;11.922;2023-05-07T06:57:54;0.25;;;0.20;;
13002;SDS011;66869;57.706;11.922;2023-05-07T07:00:20;0.20;;;0.20;;
13002;SDS011;66869;57.706;11.922;2023-05-07T07:02:45;22.65;;;4.72;;
13002;SDS011;66869;57.706;11.922;2023-05-07T07:05:10;21.00;;;4.22;;
13002;SDS011;66869;57.706;11.922;2023-05-07T07:07:36;26.33;;;5.90;;
13002;SDS011;66869;57.706;11.922;2023-05-07T07:10:01;29.85;;;5.97;;
13002;SDS011;66869;57.706;11.922;2023-05-07T07:12:27;18.95;;;4.93;;
13002;SDS011;66869;57.706;11.922;2023-05-07T07:14:53;29.63;;;5.65;;
13002;SDS011;66869;57.706;11.922;2023-05-07T07:17:19;23.67;;;5.00;;
13002;SDS011;66869;57.706;11.922;2023-05-07T07:19:44;20.38;;;4.22;;
13002;SDS011;66869;57.706;11.922;2023-05-07T07:22:09;13.63;;;2.90;;
13002;SDS011;66869;57.706;11.922;2023-05-07T07:24:35;13.57;;;2.75;;
13002;SDS011;66869;57.706;11.922;2023-05-07T07:27:00;8.20;;;2.38;;
13002;SDS011;66869;57.706;11.922;2023-05-07T07:29:25;10.55;;;2.92;;
13002;SDS011;66869;57.706;11.922;2023-05-07T07:31:51;7.38;;;2.30;;
13002;SDS011;66869;57.706;11.922;2023-05-07T07:34:17;5.93;;;2.00;;
13002;SDS011;66869;57.706;11.922;2023-05-07T07:36:42;6.38;;;2.03;;
13002;SDS011;66869;57.706;11.922;2023-05-07T07:39:07;8.48;;;1.95;;
13002;SDS011;66869;57.706;11.922;2023-05-07T07:41:32;7.95;;;1.75;;
13002;SDS011;66869;57.706;11.922;2023-05-07T07:43:58;6.43;;;1.17;;
13002;SDS011;66869;57.706;11.922;2023-05-07T07:46:23;4.15;;;1.23;;
13002;SDS011;66869;57.706;11.922;2023-05-07T07:48:48;4.82;;;1.15;;
13002;SDS011;66869;57.706;11.922;2023-05-07T07:51:14;4.97;;;1.13;;
13002;SDS011;66869;57.706;11.922;2023-05-07T07:53:39;2.33;;;1.17;;
13002;SDS011;66869;57.706;11.922;2023-05-07T07:56:06;4.70;;;1.17;;
13002;SDS011;66869;57.706;11.922;2023-05-07T07:58:31;3.22;;;1.05;;
13002;SDS011;66869;57.706;11.922;2023-05-07T08:00:56;5.30;;;1.13;;
13002;SDS011;66869;57.706;11.922;2023-05-07T08:03:21;2.05;;;0.68;;
13002;SDS011;66869;57.706;11.922;2023-05-07T08:05:47;1.77;;;0.68;;
13002;SDS011;66869;57.706;11.922;2023-05-07T08:08:14;4.03;;;0.60;;
13002;SDS011;66869;57.706;11.922;2023-05-07T08:10:40;0.75;;;0.60;;
13002;SDS011;66869;57.706;11.922;2023-05-07T08:13:05;1.73;;;0.80;;
13002;SDS011;66869;57.706;11.922;2023-05-07T08:15:30;2.22;;;0.70;;
13002;SDS011;66869;57.706;11.922;2023-05-07T08:17:56;0.95;;;0.50;;
13002;SDS011;66869;57.706;11.922;2023-05-07T08:20:22;0.55;;;0.45;;
13002;SDS011;66869;57.706;11.922;2023-05-07T08:22:47;1.75;;;0.52;;
13002;SDS011;66869;57.706;11.922;2023-05-07T08:25:13;1.15;;;0.75;;
13002;SDS011;66869;57.706;11.922;2023-05-07T08:27:38;2.08;;;0.63;;
13002;SDS011;66869;57.706;11.922;2023-05-07T08:30:04;2.17;;;0.70;;
13002;SDS011;66869;57.706;11.922;2023-05-07T08:32:29;1.63;;;0.65;;
13002;SDS011;66869;57.706;11.922;2023-05-07T08:34:54;1.70;;;0.63;;
13002;SDS011;66869;57.706;11.922;2023-05-07T08:37:20;2.45;;;0.50;;
13002;SDS011;66869;57.706;11.922;2023-05-07T08:39:45;0.60;;;0.43;;
13002;SDS011;66869;57.706;11.922;2023-05-07T08:42:11;2.78;;;0.50;;
13002;SDS011;66869;57.706;11.922;2023-05-07T08:44:37;1.08;;;0.40;;
13002;SDS011;66869;57.706;11.922;2023-05-07T08:47:03;2.83;;;0.40;;
13002;SDS011;66869;57.706;11.922;2023-05-07T08:49:31;1.98;;;0.50;;
13002;SDS011;66869;57.706;11.922;2023-05-07T08:51:56;2.17;;;0.57;;
13002;SDS011;66869;57.706;11.922;2023-05-07T08:54:21;0.95;;;0.30;;
13002;SDS011;66869;57.706;11.922;2023-05-07T08:56:47;1.05;;;0.45;;
13002;SDS011;66869;57.706;11.922;2023-05-07T08:59:13;0.40;;;0.25;;
13002;SDS011;66869;57.706;11.922;2023-05-07T09:01:38;0.28;;;0.25;;
13002;SDS011;66869;57.706;11.922;2023-05-07T09:04:03;0.50;;;0.40;;
13002;SDS011;66869;57.706;11.922;2023-05-07T09:06:29;0.43;;;0.30;;
13002;SDS011;66869;57.706;11.922;2023-05-07T09:08:55;4.95;;;0.40;;
13002;SDS011;66869;57.706;11.922;2023-05-07T09:11:23;0.45;;;0.30;;
13002;SDS011;66869;57.706;11.922;2023-05-07T09:13:52;2.13;;;0.40;;
13002;SDS011;66869;57.706;11.922;2023-05-07T09:16:18;0.45;;;0.30;;
13002;SDS011;66869;57.706;11.922;2023-05-07T09:18:45;0.30;;;0.30;;
13002;SDS011;66869;57.706;11.922;2023-05-07T09:21:14;0.65;;;0.35;;
13002;SDS011;66869;57.706;11.922;2023-05-07T09:23:40;1.40;;;0.30;;
13002;SDS011;66869;57.706;11.922;2023-05-07T09:26:05;0.43;;;0.30;;
13002;SDS011;66869;57.706;11.922;2023-05-07T09:28:37;1.00;;;0.20;;
13002;SDS011;66869;57.706;11.922;2023-05-07T09:31:02;1.13;;;0.20;;
13002;SDS011;66869;57.706;11.922;2023-05-07T09:33:28;0.20;;;0.13;;
13002;SDS011;66869;57.706;11.922;2023-05-07T09:35:54;1.98;;;0.35;;
13002;SDS011;66869;57.706;11.922;2023-05-07T09:38:19;0.25;;;0.20;;
13002;SDS011;66869;57.706;11.922;2023-05-07T09:40:46;0.20;;;0.20;;
13002;SDS011;66869;57.706;11.922;2023-05-07T09:43:12;2.40;;;0.30;;
13002;SDS011;66869;57.706;11.922;2023-05-07T09:45:38;0.32;;;0.32;;
13002;SDS011;66869;57.706;11.922;2023-05-07T09:48:04;0.65;;;0.40;;
13002;SDS011;66869;57.706;11.922;2023-05-07T09:50:35;0.20;;;0.20;;
13002;SDS011;66869;57.706;11.922;2023-05-07T09:53:01;0.60;;;0.20;;
13002;SDS011;66869;57.706;11.922;2023-05-07T09:55:26;0.60;;;0.20;;
13002;SDS011;66869;57.706;11.922;2023-05-07T09:57:52;0.93;;;0.30;;
13002;SDS011;66869;57.706;11.922;2023-05-07T10:00:20;0.30;;;0.10;;
13002;SDS011;66869;57.706;11.922;2023-05-07T10:02:49;1.05;;;0.20;;
13002;SDS011;66869;57.706;11.922;2023-05-07T10:05:16;0.38;;;0.30;;
13002;SDS011;66869;57.706;11.922;2023-05-07T10:07:42;0.20;;;0.20;;
13002;SDS011;66869;57.706;11.922;2023-05-07T10:10:08;0.55;;;0.25;;
13002;SDS011;66869;57.706;11.922;2023-05-07T10:12:34;1.50;;;0.38;;
13002;SDS011;66869;57.706;11.922;2023-05-07T10:15:05;0.30;;;0.30;;
13002;SDS011;66869;57.706;11.922;2023-05-07T10:17:31;0.20;;;0.20;;
13002;SDS011;66869;57.706;11.922;2023-05-07T10:19:56;0.17;;;0.17;;
13002;SDS011;66869;57.706;11.922;2023-05-07T10:22:22;0.75;;;0.10;;
13002;SDS011;66869;57.706;11.922;2023-05-07T10:24:48;1.75;;;0.30;;
13002;SDS011;66869;57.706;11.922;2023-05-07T10:27:14;0.32;;;0.30;;
13002;SDS011;66869;57.706;11.922;2023-05-07T10:30:03;0.77;;;0.20;;
13002;SDS011;66869;57.706;11.922;2023-05-07T10:32:37;0.38;;;0.28;;
13002;SDS011;66869;57.706;11.922;2023-05-07T10:35:04;0.45;;;0.15;;
13002;SDS011;66869;57.706;11.922;2023-05-07T10:37:31;0.30;;;0.20;;
13002;SDS011;66869;57.706;11.922;2023-05-07T10:39:57;0.20;;;0.20;;
13002;SDS011;66869;57.706;11.922;2023-05-07T10:42:22;0.22;;;0.22;;
13002;SDS011;66869;57.706;11.922;2023-05-07T10:44:48;0.20;;;0.20;;
13002;SDS011;66869;57.706;11.922;2023-05-07T10:47:14;0.20;;;0.20;;
13002;SDS011;66869;57.706;11.922;2023-05-07T10:54:37;0.47;;;0.17;;
13002;SDS011;66869;57.706;11.922;2023-05-07T11:00:02;0.10;;;0.10;;
13002;SDS011;66869;57.706;11.922;2023-05-07T11:03:10;0.30;;;0.30;;
13002;SDS011;66869;57.706;11.922;2023-05-07T11:05:22;0.20;;;0.20;;
13002;SDS011;66869;57.706;11.922;2023-05-07T11:07:57;0.32;;;0.32;;
13002;SDS011;66869;57.706;11.922;2023-05-07T11:10:23;0.20;;;0.20;;
13002;SDS011;66869;57.706;11.922;2023-05-07T11:12:49;0.20;;;0.10;;
13002;SDS011;66869;57.706;11.922;2023-05-07T11:15:14;0.20;;;0.20;;
13002;SDS011;66869;57.706;11.922;2023-05-07T11:17:53;0.10;;;0.10;;
13002;SDS011;66869;57.706;11.922;2023-05-07T11:20:18;0.52;;;0.15;;
13002;SDS011;66869;57.706;11.922;2023-05-07T11:22:44;0.10;;;0.10;;
13002;SDS011;66869;57.706;11.922;2023-05-07T11:25:09;0.10;;;0.10;;
13002;SDS011;66869;57.706;11.922;2023-05-07T11:27:35;0.10;;;0.10;;
13002;SDS011;66869;57.706;11.922;2023-05-07T11:30:01;0.10;;;0.10;;
13002;SDS011;66869;57.706;11.922;2023-05-07T11:32:30;0.28;;;0.28;;
13002;SDS011;66869;57.706;11.922;2023-05-07T11:34:56;1.27;;;0.30;;
13002;SDS011;66869;57.706;11.922;2023-05-07T11:37:23;0.10;;;0.10;;
13002;SDS011;66869;57.706;11.922;2023-05-07T11:39:49;0.30;;;0.30;;
13002;SDS011;66869;57.706;11.922;2023-05-07T11:44:50;0.15;;;0.10;;
13002;SDS011;66869;57.706;11.922;2023-05-07T11:47:19;0.28;;;0.20;;
13002;SDS011;66869;57.706;11.922;2023-05-07T11:49:48;0.73;;;0.20;;
13002;SDS011;66869;57.706;11.922;2023-05-07T11:52:14;1.10;;;0.13;;
13002;SDS011;66869;57.706;11.922;2023-05-07T11:54:39;0.43;;;0.20;;
13002;SDS011;66869;57.706;11.922;2023-05-07T11:57:04;0.10;;;0.10;;
13002;SDS011;66869;57.706;11.922;2023-05-07T11:59:37;0.20;;;0.20;;
13002;SDS011;66869;57.706;11.922;2023-05-07T12:02:03;0.57;;;0.10;;
13002;SDS011;66869;57.706;11.922;2023-05-07T12:04:29;0.25;;;0.20;;
13002;SDS011;66869;57.706;11.922;2023-05-07T12:06:54;0.20;;;0.20;;
13002;SDS011;66869;57.706;11.922;2023-05-07T12:09:20;0.20;;;0.20;;
13002;SDS011;66869;57.706;11.922;2023-05-07T12:11:46;0.20;;;0.20;;
13002;SDS011;66869;57.706;11.922;2023-05-07T12:14:11;0.20;;;0.20;;
13002;SDS011;66869;57.706;11.922;2023-05-07T12:16:36;0.20;;;0.20;;
13002;SDS011;66869;57.706;11.922;2023-05-07T12:19:03;0.20;;;0.20;;
13002;SDS011;66869;57.706;11.922;2023-05-07T12:21:29;0.63;;;0.22;;
13002;SDS011;66869;57.706;11.922;2023-05-07T12:23:54;0.17;;;0.13;;
13002;SDS011;66869;57.706;11.922;2023-05-07T12:26:20;0.10;;;0.10;;
13002;SDS011;66869;57.706;11.922;2023-05-07T12:28:46;0.22;;;0.10;;
13002;SDS011;66869;57.706;11.922;2023-05-07T12:31:11;0.20;;;0.20;;
13002;SDS011;66869;57.706;11.922;2023-05-07T12:33:38;0.20;;;0.20;;
13002;SDS011;66869;57.706;11.922;2023-05-07T12:36:05;0.30;;;0.10;;
13002;SDS011;66869;57.706;11.922;2023-05-07T12:38:35;0.20;;;0.20;;
13002;SDS011;66869;57.706;11.922;2023-05-07T12:41:01;0.20;;;0.20;;
13002;SDS011;66869;57.706;11.922;2023-05-07T12:43:27;0.20;;;0.20;;
13002;SDS011;66869;57.706;11.922;2023-05-07T12:45:54;0.20;;;0.20;;
13002;SDS011;66869;57.706;11.922;2023-05-07T12:48:20;0.30;;;0.30;;
13002;SDS011;66869;57.706;11.922;2023-05-07T12:50:49;0.40;;;0.15;;
13002;SDS011;66869;57.706;11.922;2023-05-07T12:53:14;0.82;;;0.25;;
13002;SDS011;66869;57.706;11.922;2023-05-07T12:55:41;0.10;;;0.10;;
13002;SDS011;66869;57.706;11.922;2023-05-07T12:58:07;0.10;;;0.10;;
13002;SDS011;66869;57.706;11.922;2023-05-07T13:00:33;0.28;;;0.28;;
13002;SDS011;66869;57.706;11.922;2023-05-07T13:02:58;1.75;;;0.35;;
13002;SDS011;66869;57.706;11.922;2023-05-07T13:05:24;0.10;;;0.10;;
13002;SDS011;66869;57.706;11.922;2023-05-07T13:07:53;0.30;;;0.30;;
13002;SDS011;66869;57.706;11.922;2023-05-07T13:10:18;1.02;;;0.22;;
13002;SDS011;66869;57.706;11.922;2023-05-07T13:12:43;0.20;;;0.20;;
13002;SDS011;66869;57.706;11.922;2023-05-07T13:15:09;0.20;;;0.20;;
13002;SDS011;66869;57.706;11.922;2023-05-07T13:17:34;0.20;;;0.20;;
13002;SDS011;66869;57.706;11.922;2023-05-07T13:19:59;0.25;;;0.25;;
13002;SDS011;66869;57.706;11.922;2023-05-07T13:22:25;0.10;;;0.10;;
13002;SDS011;66869;57.706;11.922;2023-05-07T13:24:50;0.22;;;0.20;;
13002;SDS011;66869;57.706;11.922;2023-05-07T13:27:15;0.25;;;0.20;;
13002;SDS011;66869;57.706;11.922;2023-05-07T13:29:40;0.30;;;0.30;;
13002;SDS011;66869;57.706;11.922;2023-05-07T13:32:06;0.35;;;0.20;;
13002;SDS011;66869;57.706;11.922;2023-05-07T13:34:31;0.20;;;0.20;;
13002;SDS011;66869;57.706;11.922;2023-05-07T13:36:56;0.20;;;0.20;;
13002;SDS011;66869;57.706;11.922;2023-05-07T13:39:21;0.20;;;0.20;;
13002;SDS011;66869;57.706;11.922;2023-05-07T13:41:47;0.22;;;0.22;;
13002;SDS011;66869;57.706;11.922;2023-05-07T13:44:12;1.42;;;0.20;;
13002;SDS011;66869;57.706;11.922;2023-05-07T13:46:37;0.15;;;0.15;;
13002;SDS011;66869;57.706;11.922;2023-05-07T13:49:03;0.05;;;0.05;;
13002;SDS011;66869;57.706;11.922;2023-05-07T13:51:28;0.30;;;0.30;;
13002;SDS011;66869;57.706;11.922;2023-05-07T13:53:53;0.15;;;0.15;;
13002;SDS011;66869;57.706;11.922;2023-05-07T13:56:19;0.28;;;0.20;;
13002;SDS011;66869;57.706;11.922;2023-05-07T13:58:45;1.85;;;0.40;;
13002;SDS011;66869;57.706;11.922;2023-05-07T14:01:10;0.25;;;0.25;;
13002;SDS011;66869;57.706;11.922;2023-05-07T14:03:35;0.28;;;0.28;;
13002;SDS011;66869;57.706;11.922;2023-05-07T14:06:02;0.20;;;0.20;;
13002;SDS011;66869;57.706;11.922;2023-05-07T14:08:28;0.20;;;0.20;;
13002;SDS011;66869;57.706;11.922;2023-05-07T14:10:53;0.25;;;0.25;;
13002;SDS011;66869;57.706;11.922;2023-05-07T14:13:18;1.10;;;0.30;;
13002;SDS011;66869;57.706;11.922;2023-05-07T14:15:44;0.20;;;0.20;;
13002;SDS011;66869;57.706;11.922;2023-05-07T14:18:14;0.50;;;0.30;;
13002;SDS011;66869;57.706;11.922;2023-05-07T14:20:39;0.20;;;0.20;;
13002;SDS011;66869;57.706;11.922;2023-05-07T14:23:04;0.30;;;0.30;;
13002;SDS011;66869;57.706;11.922;2023-05-07T14:25:29;0.30;;;0.30;;
13002;SDS011;66869;57.706;11.922;2023-05-07T14:27:55;0.32;;;0.30;;
13002;SDS011;66869;57.706;11.922;2023-05-07T14:30:20;0.25;;;0.25;;
13002;SDS011;66869;57.706;11.922;2023-05-07T14:32:47;0.30;;;0.30;;
13002;SDS011;66869;57.706;11.922;2023-05-07T14:35:12;0.20;;;0.20;;
13002;SDS011;66869;57.706;11.922;2023-05-07T14:37:37;0.20;;;0.20;;